Terminal Aerodrome Forecast
Issued by NWS Jacksonville, FL

Home | Current Version | Previous Version | Text Only | Print | Product List | Glossary On
Versions: 1 2 3 4 5 6 7 8 9 10 11 12 13 14 15 16 17 18 19 20 21 22 23 24 25
416
FTUS42 KJAX 190526 AAA
TAFJAX
TAF AMD
KJAX 190526Z 1905/2006 25004KT 6SM BR BKN250
      TEMPO 1907/1910 3SM BR
     FM191000 24003KT 3SM BR SCT003
      TEMPO 1910/1914 1/2SM FG BKN003
     FM191400 27004KT 5SM BR BKN005
     FM191500 25006KT P6SM SCT020 BKN250
     FM192000 14008KT P6SM SCT050 BKN250=

USA.gov is the U.S. government's official web portal to all federal, state and local government web resources and services.